• Join FlightAware (Why Join?)
  • Login
  • US Flag 
06:14AM EDT


 

Airport Tracker/Info


-or-


 

Live Flight TrackerFlight Track Log ✈ ASQ5024 ✈ 15-May-2013 ✈ KAGS - KATL

Flight Track Log - Related Links

Times and Time Zones

All times are in EDT time to prevent confusion due to time zone crossing. See the ASQ5024 flight status page for this flight to view local times or setup timezone preferences in your user account.

Time Position Orientation Groundspeed Altitude Reporting Facility
EDT Latitude Longitude Course Direction KTS MPH feet Rate Location/Type
03:51PM 33.3361 -81.9603 259° West 155 178 1,400  Level Atlanta Center
03:52PM 33.2858 -81.9414 163° South 166 191 3,400 1,920 Climbing Atlanta Center
03:53PM 33.2533 -81.9944 234° Southwest 164 189 5,300 2,100 Climbing Atlanta Center
03:54PM 33.2506 -82.0839 268° West 209 241 7,600 2,400 Climbing Atlanta Center
03:55PM 33.2519 -82.1758 271° West 238 274 10,200 2,040 Climbing Atlanta Center
03:56PM 33.2661 -82.2725 280° West 271 312 11,700 1,500 Climbing Atlanta Center
03:57PM 33.3122 -82.4771 259° West  Level FlightAware Approximate
03:57PM 33.2842 -82.3839 281° West 312 359 13,300  Level Atlanta Center
03:58PM 33.2919 -82.4981 275° West 337 388 14,600 900 Climbing Atlanta Center
03:59PM 33.2831 -82.6250 265° West 360 414 15,100 720 Climbing Atlanta Center
04:00PM 33.2761 -82.7542 266° West 386 444 16,100 900 Climbing Atlanta Center
04:01PM 33.2692 -82.8861 266° West 394 453 16,900 840 Climbing Atlanta Center
04:02PM 33.2639 -83.0203 267° West 411 473 17,800 780 Climbing Atlanta Center
04:03PM 33.2567 -83.1394 266° West 411 473 18,500 780 Climbing Atlanta Center
04:04PM 33.2492 -83.2714 266° West 406 467 19,400 180 Climbing Atlanta Center
04:05PM 33.2436 -83.4031 267° West 401 461 18,900 -1,620 Descending Atlanta Center
04:06PM 33.2339 -83.5372 265° West 409 471 16,200 -3,240 Descending Atlanta Center
04:07PM 33.2333 -83.6667 270° West 388 447 12,800 -2,280 Descending Atlanta TRACON
04:08PM 33.2167 -83.7833 260° West 325 374 11,900 -780 Descending Atlanta TRACON
04:09PM 33.2500 -83.8667 296° West 289 333 11,300 -960 Descending Atlanta TRACON
04:10PM 33.3167 -83.9167 328° Northwest 286 329 10,000 -1,320 Descending Atlanta TRACON
04:11PM 33.3833 -83.9833 320° Northwest 286 329 8,700 -1,320 Descending Atlanta TRACON
04:12PM 33.4436 -84.0464 319° Northwest 286 329 7,300 -1,320 Descending Atlanta Center
04:13PM 33.5019 -84.1036 321° Northwest 276 318 6,000 -1,380 Descending Atlanta Center
04:14PM 33.5606 -84.1586 322° Northwest 276 318 4,600 -1,320 Descending Atlanta Center
04:15PM 33.6000 -84.2333 302° West 259 298 3,400 -840 Descending Atlanta TRACON
04:16PM 33.6167 -84.3000 287° West 214 246 3,000 -720 Descending Atlanta TRACON
04:17PM 33.6167 -84.3500 270° West 156 180 2,000 -900 Descending Atlanta TRACON
04:18PM 33.6167 -84.4000 270° West 137 158 1,300 -720 Descending Atlanta TRACON
04:20PM 33.6367 -84.4279 233° Southwest  Level Estimated
04:27PM 33.6367 -84.4279 64° Northeast  Level Estimated